Terminal Aerodrome Forecast
Issued by NWS

Home | Current Version | Previous Version | Text Only | Print | Product List | Glossary Off
Versions: 1 2 3 4 5 6 7 8 9 10 11 12 13 14 15 16 17 18 19

000
FTUS43 KPAH 231735 AAB
TAFCGI
TAF AMD
KCGI 231735Z 2318/2418 VRB04KT P6SM VCSH BKN015
     FM232000 33010KT P6SM BKN025
     FM240000 34009KT P6SM SCT030 BKN150
     FM240300 33005KT P6SM BKN250=

USA.gov is the U.S. government's official web portal to all federal, state and local government web resources and services.